sensor_id;sensor_type;location;lat;lon;timestamp;pressure;altitude;pressure_sealevel;temperature;humidity
48790;BME280;41718;51.980;5.734;2023-02-20T00:04:15;102413.63;;;4.09;100.00
48790;BME280;41718;51.980;5.734;2023-02-20T00:09:17;102399.66;;;4.30;100.00
48790;BME280;41718;51.980;5.734;2023-02-20T00:14:18;102391.00;;;4.28;100.00
48790;BME280;41718;51.980;5.734;2023-02-20T00:19:21;102383.31;;;4.28;100.00
48790;BME280;41718;51.980;5.734;2023-02-20T00:24:23;102371.00;;;4.36;100.00
48790;BME280;41718;51.980;5.734;2023-02-20T00:29:24;102368.56;;;4.37;100.00
48790;BME280;41718;51.980;5.734;2023-02-20T00:34:27;102366.66;;;4.35;100.00
48790;BME280;41718;51.980;5.734;2023-02-20T00:39:30;102374.81;;;4.42;100.00
48790;BME280;41718;51.980;5.734;2023-02-20T00:44:32;102347.94;;;4.36;100.00
48790;BME280;41718;51.980;5.734;2023-02-20T00:49:33;102338.88;;;4.41;100.00
48790;BME280;41718;51.980;5.734;2023-02-20T00:54:35;102332.94;;;4.42;100.00
48790;BME280;41718;51.980;5.734;2023-02-20T00:59:36;102321.81;;;4.41;100.00
48790;BME280;41718;51.980;5.734;2023-02-20T01:04:38;102322.03;;;4.44;100.00
48790;BME280;41718;51.980;5.734;2023-02-20T01:09:39;102310.91;;;4.44;100.00
48790;BME280;41718;51.980;5.734;2023-02-20T01:14:41;102283.09;;;4.37;100.00
48790;BME280;41718;51.980;5.734;2023-02-20T01:19:43;102281.44;;;4.37;100.00
48790;BME280;41718;51.980;5.734;2023-02-20T01:24:44;102281.31;;;4.36;100.00
48790;BME280;41718;51.980;5.734;2023-02-20T01:29:46;102262.38;;;4.47;100.00
48790;BME280;41718;51.980;5.734;2023-02-20T01:34:47;102238.38;;;4.45;100.00
48790;BME280;41718;51.980;5.734;2023-02-20T01:39:49;102250.47;;;4.47;100.00
48790;BME280;41718;51.980;5.734;2023-02-20T01:44:50;102240.47;;;4.37;100.00
48790;BME280;41718;51.980;5.734;2023-02-20T01:50:01;102234.72;;;4.41;100.00
48790;BME280;41718;51.980;5.734;2023-02-20T01:55:12;102238.00;;;4.39;100.00
48790;BME280;41718;51.980;5.734;2023-02-20T02:00:19;102218.28;;;4.38;100.00
48790;BME280;41718;51.980;5.734;2023-02-20T02:05:21;102224.09;;;4.35;100.00
48790;BME280;41718;51.980;5.734;2023-02-20T02:10:31;102227.94;;;4.29;100.00
48790;BME280;41718;51.980;5.734;2023-02-20T02:15:35;102221.56;;;4.22;100.00
48790;BME280;41718;51.980;5.734;2023-02-20T02:26:45;102202.47;;;4.17;100.00
48790;BME280;41718;51.980;5.734;2023-02-20T02:32:12;102201.44;;;4.28;100.00
48790;BME280;41718;51.980;5.734;2023-02-20T02:37:27;102194.06;;;4.33;100.00
48790;BME280;41718;51.980;5.734;2023-02-20T02:42:51;102197.97;;;4.41;100.00
48790;BME280;41718;51.980;5.734;2023-02-20T02:47:58;102212.16;;;4.49;100.00
48790;BME280;41718;51.980;5.734;2023-02-20T02:53:03;102194.59;;;4.55;100.00
48790;BME280;41718;51.980;5.734;2023-02-20T02:58:05;102179.06;;;4.67;100.00
48790;BME280;41718;51.980;5.734;2023-02-20T03:03:15;102165.38;;;4.81;100.00
48790;BME280;41718;51.980;5.734;2023-02-20T03:08:31;102166.00;;;4.92;100.00
48790;BME280;41718;51.980;5.734;2023-02-20T03:13:47;102160.38;;;4.97;100.00
48790;BME280;41718;51.980;5.734;2023-02-20T03:19:11;102164.69;;;4.98;100.00
48790;BME280;41718;51.980;5.734;2023-02-20T03:24:17;102169.13;;;5.01;100.00
48790;BME280;41718;51.980;5.734;2023-02-20T03:29:26;102165.06;;;5.04;100.00
48790;BME280;41718;51.980;5.734;2023-02-20T03:34:30;102156.59;;;5.05;100.00
48790;BME280;41718;51.980;5.734;2023-02-20T03:39:54;102147.56;;;5.12;100.00
48790;BME280;41718;51.980;5.734;2023-02-20T03:45:17;102143.47;;;5.16;100.00
48790;BME280;41718;51.980;5.734;2023-02-20T03:50:20;102140.22;;;5.18;100.00
48790;BME280;41718;51.980;5.734;2023-02-20T03:55:41;102146.44;;;5.22;100.00
48790;BME280;41718;51.980;5.734;2023-02-20T04:00:45;102138.09;;;5.26;100.00
48790;BME280;41718;51.980;5.734;2023-02-20T04:05:51;102137.19;;;5.25;100.00
48790;BME280;41718;51.980;5.734;2023-02-20T04:10:58;102124.44;;;5.27;100.00
48790;BME280;41718;51.980;5.734;2023-02-20T04:16:01;102139.16;;;5.29;100.00
48790;BME280;41718;51.980;5.734;2023-02-20T04:21:07;102141.09;;;5.34;100.00
48790;BME280;41718;51.980;5.734;2023-02-20T04:26:16;102148.06;;;5.36;100.00
48790;BME280;41718;51.980;5.734;2023-02-20T04:31:19;102146.47;;;5.38;100.00
48790;BME280;41718;51.980;5.734;2023-02-20T04:36:22;102145.06;;;5.43;100.00
48790;BME280;41718;51.980;5.734;2023-02-20T04:41:24;102135.59;;;5.42;100.00
48790;BME280;41718;51.980;5.734;2023-02-20T04:46:25;102132.41;;;5.46;100.00
48790;BME280;41718;51.980;5.734;2023-02-20T04:51:27;102139.38;;;5.49;100.00
48790;BME280;41718;51.980;5.734;2023-02-20T04:56:28;102129.38;;;5.53;100.00
48790;BME280;41718;51.980;5.734;2023-02-20T05:01:30;102115.06;;;5.57;100.00
48790;BME280;41718;51.980;5.734;2023-02-20T05:06:32;102123.16;;;5.65;100.00
48790;BME280;41718;51.980;5.734;2023-02-20T05:11:33;102137.13;;;5.70;100.00
48790;BME280;41718;51.980;5.734;2023-02-20T05:16:39;102124.91;;;5.80;100.00
48790;BME280;41718;51.980;5.734;2023-02-20T05:21:42;102133.88;;;5.89;100.00
48790;BME280;41718;51.980;5.734;2023-02-20T05:27:02;102136.81;;;5.95;100.00
48790;BME280;41718;51.980;5.734;2023-02-20T05:32:04;102124.16;;;5.98;100.00
48790;BME280;41718;51.980;5.734;2023-02-20T05:37:05;102122.28;;;5.95;100.00
48790;BME280;41718;51.980;5.734;2023-02-20T05:42:08;102119.28;;;6.02;100.00
48790;BME280;41718;51.980;5.734;2023-02-20T05:47:09;102106.50;;;6.04;100.00
48790;BME280;41718;51.980;5.734;2023-02-20T05:52:11;102098.63;;;6.01;100.00
48790;BME280;41718;51.980;5.734;2023-02-20T05:57:14;102106.75;;;6.08;100.00
48790;BME280;41718;51.980;5.734;2023-02-20T06:02:15;102105.22;;;6.12;100.00
48790;BME280;41718;51.980;5.734;2023-02-20T06:07:16;102109.59;;;6.13;100.00
48790;BME280;41718;51.980;5.734;2023-02-20T06:12:18;102118.63;;;6.23;100.00
48790;BME280;41718;51.980;5.734;2023-02-20T06:17:19;102119.44;;;6.22;100.00
48790;BME280;41718;51.980;5.734;2023-02-20T06:22:21;102109.97;;;6.21;100.00
48790;BME280;41718;51.980;5.734;2023-02-20T06:27:22;102121.63;;;6.30;100.00
48790;BME280;41718;51.980;5.734;2023-02-20T06:32:24;102122.59;;;6.32;100.00
48790;BME280;41718;51.980;5.734;2023-02-20T06:37:28;102112.38;;;6.34;100.00
48790;BME280;41718;51.980;5.734;2023-02-20T06:42:30;102121.94;;;6.36;100.00
48790;BME280;41718;51.980;5.734;2023-02-20T06:47:31;102108.28;;;6.37;100.00
48790;BME280;41718;51.980;5.734;2023-02-20T06:52:33;102111.25;;;6.45;100.00
48790;BME280;41718;51.980;5.734;2023-02-20T06:57:34;102116.56;;;6.48;100.00
48790;BME280;41718;51.980;5.734;2023-02-20T07:02:36;102126.91;;;6.50;100.00
48790;BME280;41718;51.980;5.734;2023-02-20T07:07:38;102109.81;;;6.50;100.00
48790;BME280;41718;51.980;5.734;2023-02-20T07:12:40;102121.84;;;6.51;100.00
48790;BME280;41718;51.980;5.734;2023-02-20T07:17:41;102123.72;;;6.54;100.00
48790;BME280;41718;51.980;5.734;2023-02-20T07:22:50;102120.41;;;6.56;100.00
48790;BME280;41718;51.980;5.734;2023-02-20T07:27:52;102113.75;;;6.60;100.00
48790;BME280;41718;51.980;5.734;2023-02-20T07:32:54;102106.03;;;6.60;100.00
48790;BME280;41718;51.980;5.734;2023-02-20T07:37:55;102108.75;;;6.63;100.00
48790;BME280;41718;51.980;5.734;2023-02-20T07:42:57;102103.59;;;6.63;100.00
48790;BME280;41718;51.980;5.734;2023-02-20T07:47:58;102112.19;;;6.63;100.00
48790;BME280;41718;51.980;5.734;2023-02-20T07:52:59;102116.00;;;6.70;100.00
48790;BME280;41718;51.980;5.734;2023-02-20T07:58:01;102109.97;;;6.70;100.00
48790;BME280;41718;51.980;5.734;2023-02-20T08:03:02;102110.91;;;6.72;100.00
48790;BME280;41718;51.980;5.734;2023-02-20T08:08:04;102111.78;;;6.72;100.00
48790;BME280;41718;51.980;5.734;2023-02-20T08:13:05;102108.59;;;6.76;100.00
48790;BME280;41718;51.980;5.734;2023-02-20T08:18:07;102093.16;;;6.76;100.00
48790;BME280;41718;51.980;5.734;2023-02-20T08:23:23;102099.19;;;6.77;100.00
48790;BME280;41718;51.980;5.734;2023-02-20T08:28:24;102103.50;;;6.78;100.00
48790;BME280;41718;51.980;5.734;2023-02-20T08:33:26;102106.38;;;6.84;100.00
48790;BME280;41718;51.980;5.734;2023-02-20T08:38:34;102109.19;;;6.88;100.00
48790;BME280;41718;51.980;5.734;2023-02-20T08:43:37;102098.16;;;6.91;100.00
48790;BME280;41718;51.980;5.734;2023-02-20T08:48:39;102100.16;;;6.97;100.00
48790;BME280;41718;51.980;5.734;2023-02-20T08:53:44;102099.50;;;7.01;100.00
48790;BME280;41718;51.980;5.734;2023-02-20T08:58:52;102082.69;;;7.07;100.00
48790;BME280;41718;51.980;5.734;2023-02-20T09:03:54;102084.84;;;7.16;100.00
48790;BME280;41718;51.980;5.734;2023-02-20T09:08:56;102082.63;;;7.24;100.00
48790;BME280;41718;51.980;5.734;2023-02-20T09:13:57;102104.16;;;7.26;100.00
48790;BME280;41718;51.980;5.734;2023-02-20T09:18:59;102087.06;;;7.26;100.00
48790;BME280;41718;51.980;5.734;2023-02-20T09:24:01;102094.19;;;7.32;100.00
48790;BME280;41718;51.980;5.734;2023-02-20T09:29:05;102077.19;;;7.35;100.00
48790;BME280;41718;51.980;5.734;2023-02-20T09:34:06;102080.63;;;7.36;100.00
48790;BME280;41718;51.980;5.734;2023-02-20T09:39:08;102073.78;;;7.36;100.00
48790;BME280;41718;51.980;5.734;2023-02-20T09:49:31;102070.34;;;7.36;100.00
48790;BME280;41718;51.980;5.734;2023-02-20T09:54:46;102073.78;;;7.36;100.00
48790;BME280;41718;51.980;5.734;2023-02-20T09:59:52;102082.38;;;7.37;100.00
48790;BME280;41718;51.980;5.734;2023-02-20T10:04:56;102067.34;;;7.27;100.00
48790;BME280;41718;51.980;5.734;2023-02-20T10:10:24;102081.38;;;7.33;100.00
48790;BME280;41718;51.980;5.734;2023-02-20T10:15:41;102076.22;;;7.33;100.00
48790;BME280;41718;51.980;5.734;2023-02-20T10:25:59;102069.97;;;7.28;100.00
48790;BME280;41718;51.980;5.734;2023-02-20T10:36:41;102088.88;;;7.29;100.00
48790;BME280;41718;51.980;5.734;2023-02-20T10:42:07;102085.41;;;7.28;100.00
48790;BME280;41718;51.980;5.734;2023-02-20T10:52:28;102098.59;;;7.34;100.00
48790;BME280;41718;51.980;5.734;2023-02-20T10:57:55;102079.63;;;7.32;100.00
48790;BME280;41718;51.980;5.734;2023-02-20T11:03:07;102098.66;;;7.36;100.00
48790;BME280;41718;51.980;5.734;2023-02-20T11:08:12;102085.88;;;7.37;100.00
48790;BME280;41718;51.980;5.734;2023-02-20T11:13:19;102093.78;;;7.42;100.00
48790;BME280;41718;51.980;5.734;2023-02-20T11:18:28;102065.75;;;7.48;100.00
48790;BME280;41718;51.980;5.734;2023-02-20T11:23:34;102065.03;;;7.51;100.00
48790;BME280;41718;51.980;5.734;2023-02-20T11:28:36;102075.13;;;7.46;100.00
48790;BME280;41718;51.980;5.734;2023-02-20T11:33:44;102050.31;;;7.48;100.00
48790;BME280;41718;51.980;5.734;2023-02-20T11:38:55;102039.94;;;7.47;100.00
48790;BME280;41718;51.980;5.734;2023-02-20T11:44:19;102017.59;;;7.46;100.00
48790;BME280;41718;51.980;5.734;2023-02-20T11:49:26;102044.28;;;7.48;100.00
48790;BME280;41718;51.980;5.734;2023-02-20T11:54:30;102019.91;;;7.59;100.00
48790;BME280;41718;51.980;5.734;2023-02-20T11:59:46;102046.69;;;7.62;100.00
48790;BME280;41718;51.980;5.734;2023-02-20T12:05:05;102000.78;;;7.72;100.00
48790;BME280;41718;51.980;5.734;2023-02-20T12:10:21;102022.44;;;7.77;100.00
48790;BME280;41718;51.980;5.734;2023-02-20T12:15:26;102021.06;;;7.83;100.00
48790;BME280;41718;51.980;5.734;2023-02-20T12:20:29;102037.28;;;7.82;100.00
48790;BME280;41718;51.980;5.734;2023-02-20T12:36:53;102043.63;;;7.89;100.00
48790;BME280;41718;51.980;5.734;2023-02-20T12:42:02;102035.19;;;7.93;100.00
48790;BME280;41718;51.980;5.734;2023-02-20T12:47:16;102019.94;;;7.97;100.00
48790;BME280;41718;51.980;5.734;2023-02-20T13:03:00;102015.81;;;8.01;100.00
48790;BME280;41718;51.980;5.734;2023-02-20T13:08:08;101992.53;;;8.00;100.00
48790;BME280;41718;51.980;5.734;2023-02-20T13:13:11;101990.94;;;8.02;100.00
48790;BME280;41718;51.980;5.734;2023-02-20T13:18:21;101995.28;;;8.03;100.00
48790;BME280;41718;51.980;5.734;2023-02-20T13:23:28;101981.50;;;8.02;100.00
48790;BME280;41718;51.980;5.734;2023-02-20T13:54:50;101951.88;;;8.12;100.00
48790;BME280;41718;51.980;5.734;2023-02-20T13:59:53;101951.06;;;8.13;100.00
48790;BME280;41718;51.980;5.734;2023-02-20T14:05:05;101949.19;;;8.10;100.00
48790;BME280;41718;51.980;5.734;2023-02-20T14:10:18;101938.97;;;8.12;100.00
48790;BME280;41718;51.980;5.734;2023-02-20T14:15:20;101937.13;;;8.09;100.00
48790;BME280;41718;51.980;5.734;2023-02-20T14:20:34;101926.81;;;8.09;100.00
48790;BME280;41718;51.980;5.734;2023-02-20T14:25:36;101934.56;;;8.09;100.00
48790;BME280;41718;51.980;5.734;2023-02-20T14:31:22;101922.44;;;8.07;100.00
48790;BME280;41718;51.980;5.734;2023-02-20T14:41:38;101917.66;;;7.95;100.00
48790;BME280;41718;51.980;5.734;2023-02-20T14:46:59;101898.75;;;7.94;100.00
48790;BME280;41718;51.980;5.734;2023-02-20T14:52:15;101910.66;;;7.92;100.00
48790;BME280;41718;51.980;5.734;2023-02-20T14:57:17;101916.47;;;7.88;100.00
48790;BME280;41718;51.980;5.734;2023-02-20T15:02:27;101920.75;;;7.88;100.00
48790;BME280;41718;51.980;5.734;2023-02-20T15:07:37;101920.75;;;7.88;100.00
48790;BME280;41718;51.980;5.734;2023-02-20T15:12:40;101922.34;;;7.84;100.00
48790;BME280;41718;51.980;5.734;2023-02-20T15:17:43;101924.84;;;7.83;100.00
48790;BME280;41718;51.980;5.734;2023-02-20T15:22:45;101937.75;;;7.83;100.00
48790;BME280;41718;51.980;5.734;2023-02-20T15:33:20;101935.84;;;7.79;100.00
48790;BME280;41718;51.980;5.734;2023-02-20T15:38:22;101928.78;;;7.75;100.00
48790;BME280;41718;51.980;5.734;2023-02-20T15:43:27;101929.59;;;7.74;100.00
48790;BME280;41718;51.980;5.734;2023-02-20T15:48:48;101942.41;;;7.72;100.00
48790;BME280;41718;51.980;5.734;2023-02-20T15:53:51;101936.28;;;7.70;100.00
48790;BME280;41718;51.980;5.734;2023-02-20T15:58:53;101936.19;;;7.67;100.00
48790;BME280;41718;51.980;5.734;2023-02-20T16:03:55;101921.44;;;7.64;100.00
48790;BME280;41718;51.980;5.734;2023-02-20T16:08:56;101930.00;;;7.63;100.00
48790;BME280;41718;51.980;5.734;2023-02-20T16:13:59;101937.66;;;7.62;100.00
48790;BME280;41718;51.980;5.734;2023-02-20T16:19:21;101930.81;;;7.62;100.00
48790;BME280;41718;51.980;5.734;2023-02-20T16:24:37;101928.84;;;7.57;100.00
48790;BME280;41718;51.980;5.734;2023-02-20T16:29:40;101934.00;;;7.57;100.00
48790;BME280;41718;51.980;5.734;2023-02-20T16:34:42;101933.94;;;7.55;100.00
48790;BME280;41718;51.980;5.734;2023-02-20T16:39:46;101921.78;;;7.53;100.00
48790;BME280;41718;51.980;5.734;2023-02-20T16:44:48;101938.13;;;7.53;100.00
48790;BME280;41718;51.980;5.734;2023-02-20T16:49:50;101948.41;;;7.53;100.00
48790;BME280;41718;51.980;5.734;2023-02-20T16:54:53;101944.16;;;7.54;100.00
48790;BME280;41718;51.980;5.734;2023-02-20T17:00:01;101944.97;;;7.53;100.00
48790;BME280;41718;51.980;5.734;2023-02-20T17:05:10;101929.47;;;7.51;100.00
48790;BME280;41718;51.980;5.734;2023-02-20T17:10:14;101940.69;;;7.53;100.00
48790;BME280;41718;51.980;5.734;2023-02-20T17:15:28;101947.47;;;7.51;100.00
48790;BME280;41718;51.980;5.734;2023-02-20T17:20:30;101947.31;;;7.48;100.00
48790;BME280;41718;51.980;5.734;2023-02-20T17:25:32;101955.94;;;7.49;100.00
48790;BME280;41718;51.980;5.734;2023-02-20T17:30:35;101953.28;;;7.47;100.00
48790;BME280;41718;51.980;5.734;2023-02-20T17:35:40;101958.44;;;7.47;100.00
48790;BME280;41718;51.980;5.734;2023-02-20T17:40:47;101966.16;;;7.47;100.00
48790;BME280;41718;51.980;5.734;2023-02-20T17:45:49;101966.97;;;7.46;100.00
48790;BME280;41718;51.980;5.734;2023-02-20T17:50:51;101952.28;;;7.43;100.00
48790;BME280;41718;51.980;5.734;2023-02-20T17:55:54;101948.03;;;7.44;100.00
48790;BME280;41718;51.980;5.734;2023-02-20T18:01:00;101948.81;;;7.43;100.00
48790;BME280;41718;51.980;5.734;2023-02-20T18:06:04;101943.66;;;7.43;100.00
48790;BME280;41718;51.980;5.734;2023-02-20T18:11:06;101954.06;;;7.44;100.00
48790;BME280;41718;51.980;5.734;2023-02-20T18:16:08;101949.78;;;7.45;100.00
48790;BME280;41718;51.980;5.734;2023-02-20T18:21:25;101949.91;;;7.48;100.00
48790;BME280;41718;51.980;5.734;2023-02-20T18:26:27;101949.03;;;7.48;100.00
48790;BME280;41718;51.980;5.734;2023-02-20T18:31:28;101938.59;;;7.44;100.00
48790;BME280;41718;51.980;5.734;2023-02-20T18:36:33;101932.69;;;7.47;100.00
48790;BME280;41718;51.980;5.734;2023-02-20T18:41:36;101950.19;;;7.54;100.00
48790;BME280;41718;51.980;5.734;2023-02-20T18:46:38;101942.34;;;7.51;100.00
48790;BME280;41718;51.980;5.734;2023-02-20T18:51:42;101935.53;;;7.53;100.00
48790;BME280;41718;51.980;5.734;2023-02-20T18:56:47;101947.59;;;7.54;100.00
48790;BME280;41718;51.980;5.734;2023-02-20T19:02:13;101939.88;;;7.54;100.00
48790;BME280;41718;51.980;5.734;2023-02-20T19:07:20;101937.41;;;7.56;100.00
48790;BME280;41718;51.980;5.734;2023-02-20T19:12:30;101927.16;;;7.57;100.00
48790;BME280;41718;51.980;5.734;2023-02-20T19:18:09;101925.19;;;7.52;100.00
48790;BME280;41718;51.980;5.734;2023-02-20T19:23:26;101939.00;;;7.54;100.00
48790;BME280;41718;51.980;5.734;2023-02-20T19:28:31;101926.41;;;7.60;100.00
48790;BME280;41718;51.980;5.734;2023-02-20T19:33:52;101924.38;;;7.53;100.00
48790;BME280;41718;51.980;5.734;2023-02-20T19:39:00;101920.91;;;7.52;100.00
48790;BME280;41718;51.980;5.734;2023-02-20T19:44:15;101904.75;;;7.55;100.00
48790;BME280;41718;51.980;5.734;2023-02-20T19:49:44;101917.66;;;7.56;100.00
48790;BME280;41718;51.980;5.734;2023-02-20T19:55:03;101918.41;;;7.54;100.00
48790;BME280;41718;51.980;5.734;2023-02-20T20:00:11;101910.78;;;7.55;100.00
48790;BME280;41718;51.980;5.734;2023-02-20T20:05:28;101906.50;;;7.56;100.00
48790;BME280;41718;51.980;5.734;2023-02-20T20:10:39;101914.28;;;7.57;100.00
48790;BME280;41718;51.980;5.734;2023-02-20T20:16:00;101915.81;;;7.54;100.00
48790;BME280;41718;51.980;5.734;2023-02-20T20:21:13;101912.38;;;7.53;100.00
48790;BME280;41718;51.980;5.734;2023-02-20T20:26:43;101907.22;;;7.53;100.00
48790;BME280;41718;51.980;5.734;2023-02-20T20:31:49;101910.00;;;7.58;100.00
48790;BME280;41718;51.980;5.734;2023-02-20T20:37:03;101908.25;;;7.57;100.00
48790;BME280;41718;51.980;5.734;2023-02-20T20:42:06;101909.13;;;7.57;100.00
48790;BME280;41718;51.980;5.734;2023-02-20T20:47:23;101897.81;;;7.54;100.00
48790;BME280;41718;51.980;5.734;2023-02-20T20:58:34;101878.09;;;7.54;100.00
48790;BME280;41718;51.980;5.734;2023-02-20T21:03:43;101884.19;;;7.56;100.00
48790;BME280;41718;51.980;5.734;2023-02-20T21:08:56;101887.66;;;7.57;100.00
48790;BME280;41718;51.980;5.734;2023-02-20T21:14:30;101885.81;;;7.54;100.00
48790;BME280;41718;51.980;5.734;2023-02-20T21:20:00;101891.03;;;7.56;100.00
48790;BME280;41718;51.980;5.734;2023-02-20T21:25:20;101887.59;;;7.55;100.00
48790;BME280;41718;51.980;5.734;2023-02-20T21:30:37;101890.22;;;7.57;100.00
48790;BME280;41718;51.980;5.734;2023-02-20T21:36:27;101877.97;;;7.51;100.00
48790;BME280;41718;51.980;5.734;2023-02-20T21:41:47;101872.81;;;7.51;100.00
48790;BME280;41718;51.980;5.734;2023-02-20T21:47:15;101882.63;;;7.60;100.00
48790;BME280;41718;51.980;5.734;2023-02-20T21:52:21;101874.72;;;7.55;100.00
48790;BME280;41718;51.980;5.734;2023-02-20T21:57:25;101870.31;;;7.53;100.00
48790;BME280;41718;51.980;5.734;2023-02-20T22:02:42;101872.00;;;7.52;100.00
48790;BME280;41718;51.980;5.734;2023-02-20T22:07:50;101858.91;;;7.48;100.00
48790;BME280;41718;51.980;5.734;2023-02-20T22:13:30;101869.22;;;7.48;100.00
48790;BME280;41718;51.980;5.734;2023-02-20T22:18:56;101876.13;;;7.49;100.00
48790;BME280;41718;51.980;5.734;2023-02-20T22:24:20;101884.06;;;7.53;100.00
48790;BME280;41718;51.980;5.734;2023-02-20T22:30:21;101873.53;;;7.49;100.00
48790;BME280;41718;51.980;5.734;2023-02-20T22:36:00;101876.22;;;7.50;100.00
48790;BME280;41718;51.980;5.734;2023-02-20T22:41:26;101884.88;;;7.52;100.00
48790;BME280;41718;51.980;5.734;2023-02-20T22:46:54;101876.22;;;7.50;100.00
48790;BME280;41718;51.980;5.734;2023-02-20T22:52:18;101869.31;;;7.49;100.00
48790;BME280;41718;51.980;5.734;2023-02-20T22:58:12;101882.97;;;7.48;100.00
48790;BME280;41718;51.980;5.734;2023-02-20T23:03:53;101888.06;;;7.47;100.00
48790;BME280;41718;51.980;5.734;2023-02-20T23:09:33;101881.16;;;7.46;100.00
48790;BME280;41718;51.980;5.734;2023-02-20T23:14:58;101876.81;;;7.44;100.00
48790;BME280;41718;51.980;5.734;2023-02-20T23:20:22;101879.25;;;7.41;100.00
48790;BME280;41718;51.980;5.734;2023-02-20T23:26:19;101886.34;;;7.47;100.00
48790;BME280;41718;51.980;5.734;2023-02-20T23:32:09;101875.78;;;7.41;100.00
48790;BME280;41718;51.980;5.734;2023-02-20T23:37:34;101885.41;;;7.45;100.00
48790;BME280;41718;51.980;5.734;2023-02-20T23:43:09;101896.66;;;7.47;100.00
48790;BME280;41718;51.980;5.734;2023-02-20T23:48:37;101905.19;;;7.46;100.00
48790;BME280;41718;51.980;5.734;2023-02-20T23:54:11;101897.31;;;7.43;100.00
48790;BME280;41718;51.980;5.734;2023-02-20T23:59:33;101905.19;;;7.46;100.00
